createdAt,value
2023-03-15T00:00:30.909Z,100954.78
2023-03-15T00:01:27.252Z,100949.06
2023-03-15T00:02:00.342Z,100954.47
2023-03-15T00:02:32.062Z,100956.19
2023-03-15T00:03:04.168Z,100952.91
2023-03-15T00:03:37.493Z,100956.19
2023-03-15T00:04:09.345Z,100953.84
2023-03-15T00:04:41.830Z,100958.66
2023-03-15T00:05:13.577Z,100952.53
2023-03-15T00:05:46.283Z,100955.91
2023-03-15T00:06:17.926Z,100959.34
2023-03-15T00:06:49.534Z,100956.56
2023-03-15T00:07:25.770Z,100951.19
2023-03-15T00:07:58.230Z,100954.78
2023-03-15T00:08:33.154Z,100956.41
2023-03-15T00:09:04.775Z,100958.69
2023-03-15T00:09:36.303Z,100963.91
2023-03-15T00:10:08.490Z,100966.06
2023-03-15T00:10:41.968Z,100957.34
2023-03-15T00:11:15.153Z,100961.97
2023-03-15T00:11:46.667Z,100963.53
2023-03-15T00:12:18.715Z,100960.31
2023-03-15T00:12:50.626Z,100963.25
2023-03-15T00:13:22.176Z,100965.31
2023-03-15T00:13:53.747Z,100968.66
2023-03-15T00:14:25.346Z,100958.06
2023-03-15T00:14:56.897Z,100962.41
2023-03-15T00:15:29.665Z,100966.31
2023-03-15T00:16:06.148Z,100970.00
2023-03-15T00:16:37.747Z,100965.94
2023-03-15T00:17:09.423Z,100964.28
2023-03-15T00:17:41.718Z,100968.69
2023-03-15T00:18:13.575Z,100966.13
2023-03-15T00:18:47.789Z,100964.59
2023-03-15T00:19:19.434Z,100963.31
2023-03-15T00:19:51.051Z,100967.94
2023-03-15T00:20:22.568Z,100974.09
2023-03-15T00:20:54.354Z,100966.25
2023-03-15T00:21:26.004Z,100975.16
2023-03-15T00:21:57.550Z,100969.91
2023-03-15T00:22:29.062Z,100968.91
2023-03-15T00:23:00.634Z,100976.06
2023-03-15T00:23:32.250Z,100974.00
2023-03-15T00:24:03.818Z,100977.09
2023-03-15T00:24:35.393Z,100979.84
2023-03-15T00:25:07.437Z,100974.31
2023-03-15T00:25:39.442Z,100973.06
2023-03-15T00:26:11.310Z,100973.44
2023-03-15T00:26:42.885Z,100979.34
2023-03-15T00:27:14.423Z,100971.63
2023-03-15T00:27:45.999Z,100978.00
2023-03-15T00:28:18.003Z,100977.41
2023-03-15T00:28:49.617Z,100978.56
2023-03-15T00:29:22.029Z,100977.91
2023-03-15T00:29:53.668Z,100975.91
2023-03-15T00:30:25.185Z,100983.00
2023-03-15T00:31:17.457Z,100977.75
2023-03-15T00:31:51.645Z,100982.56
2023-03-15T00:32:23.260Z,100985.72
2023-03-15T00:32:55.035Z,100990.13
2023-03-15T00:33:26.562Z,100980.47
2023-03-15T00:33:59.565Z,100985.41
2023-03-15T00:34:33.754Z,100971.13
2023-03-15T00:35:05.674Z,100986.03
2023-03-15T00:35:41.971Z,100987.88
2023-03-15T00:36:13.966Z,100987.59
2023-03-15T00:36:46.010Z,100982.84
2023-03-15T00:37:19.691Z,100981.19
2023-03-15T00:37:55.512Z,100984.59
2023-03-15T00:38:27.060Z,100985.34
2023-03-15T00:38:58.692Z,100984.28
2023-03-15T00:39:30.410Z,100990.22
2023-03-15T00:40:02.041Z,100997.41
2023-03-15T00:40:33.824Z,100990.44
2023-03-15T00:41:10.855Z,100993.34
2023-03-15T00:41:42.492Z,100987.66
2023-03-15T00:42:17.578Z,100982.94
2023-03-15T00:42:50.367Z,100987.38
2023-03-15T00:43:21.966Z,100985.56
2023-03-15T00:43:53.571Z,100984.28
2023-03-15T00:44:25.223Z,100989.16
2023-03-15T00:44:56.781Z,100986.97
2023-03-15T00:45:29.286Z,100997.50
2023-03-15T00:46:01.192Z,100990.13
2023-03-15T00:46:33.494Z,100989.31
2023-03-15T00:47:05.163Z,100992.63
2023-03-15T00:47:37.045Z,100995.09
2023-03-15T00:48:08.964Z,100993.97
2023-03-15T00:48:40.705Z,100990.97
2023-03-15T00:49:13.665Z,100996.22
2023-03-15T00:49:46.240Z,100996.94
2023-03-15T00:50:18.367Z,100995.81
2023-03-15T00:50:49.911Z,100993.88
2023-03-15T00:51:23.453Z,100987.34
2023-03-15T00:51:55.955Z,100987.03
2023-03-15T00:52:27.599Z,100988.47
2023-03-15T00:52:59.197Z,101000.69
2023-03-15T00:53:36.365Z,100995.66
2023-03-15T00:54:07.912Z,100997.16
2023-03-15T00:54:39.518Z,100994.16
2023-03-15T00:55:15.931Z,100997.47
2023-03-15T00:55:47.644Z,100996.13
2023-03-15T00:56:25.166Z,100989.97
2023-03-15T00:56:56.709Z,100997.78
2023-03-15T00:57:28.620Z,101000.31
2023-03-15T00:58:00.133Z,100999.94
2023-03-15T00:58:32.664Z,100999.13
2023-03-15T00:59:04.166Z,101003.75
2023-03-15T00:59:36.165Z,101007.09
2023-03-15T01:00:24.525Z,100999.94
2023-03-15T01:00:56.181Z,101003.75
2023-03-15T01:01:29.767Z,101005.41
2023-03-15T01:02:02.629Z,100993.00
2023-03-15T01:02:34.400Z,100997.84
2023-03-15T01:03:06.087Z,100988.63
2023-03-15T01:03:37.838Z,101000.47
2023-03-15T01:04:09.552Z,100991.91
2023-03-15T01:04:42.154Z,100995.72
2023-03-15T01:05:27.211Z,100999.78
2023-03-15T01:05:59.866Z,100999.13
2023-03-15T01:06:42.521Z,101007.44
2023-03-15T01:07:17.588Z,101004.34
2023-03-15T01:07:50.188Z,101008.19
2023-03-15T01:08:27.257Z,101008.56
2023-03-15T01:09:02.674Z,101005.28
2023-03-15T01:09:36.035Z,101004.59
2023-03-15T01:10:09.141Z,101005.28
2023-03-15T01:10:43.909Z,101003.63
2023-03-15T01:11:18.726Z,101000.63
2023-03-15T01:11:50.504Z,101004.38
2023-03-15T01:12:22.137Z,101003.97
2023-03-15T01:12:53.703Z,101005.88
2023-03-15T01:13:25.219Z,101011.69
2023-03-15T01:13:59.399Z,101006.69
2023-03-15T01:14:31.438Z,101007.81
2023-03-15T01:15:05.327Z,101010.03
2023-03-15T01:15:37.029Z,101003.94
2023-03-15T01:16:10.901Z,101009.16
2023-03-15T01:16:42.590Z,101000.94
2023-03-15T01:17:14.830Z,101006.75
2023-03-15T01:17:46.411Z,101010.59
2023-03-15T01:18:17.934Z,101000.63
2023-03-15T01:18:51.516Z,101008.09
2023-03-15T01:19:24.196Z,101010.16
2023-03-15T01:19:59.307Z,101015.75
2023-03-15T01:20:30.863Z,101009.84
2023-03-15T01:21:02.594Z,101014.72
2023-03-15T01:21:34.120Z,101010.03
2023-03-15T01:22:05.713Z,101006.22
2023-03-15T01:22:37.324Z,101005.41
2023-03-15T01:23:08.869Z,101011.41
2023-03-15T01:23:40.763Z,101016.38
2023-03-15T01:24:14.192Z,101009.50
2023-03-15T01:24:46.335Z,101011.00
2023-03-15T01:25:17.957Z,101010.03
2023-03-15T01:25:50.212Z,101013.06
2023-03-15T01:26:22.036Z,101006.75
2023-03-15T01:26:53.586Z,101010.34
2023-03-15T01:27:25.213Z,101011.69
2023-03-15T01:27:58.096Z,101012.00
2023-03-15T01:28:29.752Z,101016.25
2023-03-15T01:29:01.655Z,101015.38
2023-03-15T01:29:34.424Z,101009.47
2023-03-15T01:30:07.340Z,101007.03
2023-03-15T01:30:38.997Z,101012.00
2023-03-15T01:31:18.090Z,101016.41
2023-03-15T01:31:49.742Z,101013.63
2023-03-15T01:32:21.418Z,101011.69
2023-03-15T01:32:53.267Z,101022.59
2023-03-15T01:33:25.076Z,101017.50
2023-03-15T01:33:57.923Z,101015.69
2023-03-15T01:34:31.114Z,101013.72
2023-03-15T01:35:02.862Z,101015.13
2023-03-15T01:35:34.421Z,101012.88
2023-03-15T01:36:07.625Z,101015.34
2023-03-15T01:36:40.397Z,101012.06
2023-03-15T01:37:14.935Z,101014.16
2023-03-15T01:37:50.708Z,101016.25
2023-03-15T01:38:22.671Z,101017.97
2023-03-15T01:38:55.054Z,101013.56
2023-03-15T01:39:32.429Z,101013.56
2023-03-15T01:40:06.546Z,101017.06
2023-03-15T01:40:45.692Z,101017.31
2023-03-15T01:41:19.492Z,101014.22
2023-03-15T01:41:51.061Z,101019.78
2023-03-15T01:42:22.813Z,101014.22
2023-03-15T01:43:15.432Z,101023.16
2023-03-15T01:43:48.648Z,101026.28
2023-03-15T01:44:21.901Z,101022.78
2023-03-15T01:44:55.231Z,101028.09
2023-03-15T01:45:57.374Z,101027.72
2023-03-15T01:46:34.857Z,101023.59
2023-03-15T01:47:28.129Z,101020.44
2023-03-15T01:48:01.560Z,101020.59
2023-03-15T01:48:58.410Z,101023.75
2023-03-15T01:49:34.925Z,101034.38
2023-03-15T01:50:11.502Z,101024.88
2023-03-15T01:50:43.596Z,101025.53
2023-03-15T01:51:17.946Z,101034.97
2023-03-15T01:51:55.237Z,101032.72
2023-03-15T01:52:32.999Z,101031.69
2023-03-15T01:53:06.633Z,101033.63
2023-03-15T01:53:39.930Z,101042.78
2023-03-15T01:54:19.570Z,101036.25
2023-03-15T01:54:53.580Z,101039.84
2023-03-15T01:55:25.146Z,101027.72
2023-03-15T01:56:06.669Z,101037.63
2023-03-15T01:56:46.030Z,101047.03
2023-03-15T01:57:31.144Z,101050.78
2023-03-15T01:58:07.035Z,101044.72
2023-03-15T01:58:44.021Z,101042.31
2023-03-15T01:59:21.671Z,101048.75
2023-03-15T02:00:01.957Z,101045.69
2023-03-15T02:00:33.917Z,101048.53
2023-03-15T02:01:10.771Z,101042.06
2023-03-15T02:01:46.927Z,101054.91
2023-03-15T02:02:22.707Z,101044.28
2023-03-15T02:03:05.082Z,101047.53
2023-03-15T02:03:46.560Z,101044.91
2023-03-15T02:04:25.081Z,101038.88
2023-03-15T02:05:01.284Z,101045.09
2023-03-15T02:05:37.996Z,101049.00
2023-03-15T02:06:11.462Z,101048.16
2023-03-15T02:06:48.563Z,101045.91
2023-03-15T02:07:21.434Z,101050.88
2023-03-15T02:07:54.715Z,101045.88
2023-03-15T02:08:32.909Z,101046.56
2023-03-15T02:09:07.152Z,101054.41
2023-03-15T02:09:53.726Z,101053.59
2023-03-15T02:10:34.330Z,101054.78
2023-03-15T02:11:06.841Z,101060.94
2023-03-15T02:11:38.506Z,101055.78
2023-03-15T02:12:11.246Z,101064.59
2023-03-15T02:12:48.840Z,101061.63
2023-03-15T02:13:22.828Z,101064.69
2023-03-15T02:13:55.552Z,101068.53
2023-03-15T02:14:27.965Z,101065.78
2023-03-15T02:15:02.127Z,101063.84
2023-03-15T02:15:35.098Z,101071.00
2023-03-15T02:16:10.000Z,101067.16
2023-03-15T02:16:49.064Z,101067.16
2023-03-15T02:17:25.816Z,101067.16
2023-03-15T02:17:57.413Z,101069.84
2023-03-15T02:18:28.974Z,101068.13
2023-03-15T02:19:01.921Z,101065.22
2023-03-15T02:19:57.866Z,101061.63
2023-03-15T02:20:47.199Z,101070.16
2023-03-15T02:21:44.879Z,101067.59
2023-03-15T02:22:25.456Z,101073.16
2023-03-15T02:23:00.538Z,101069.56
2023-03-15T02:23:32.351Z,101065.97
2023-03-15T02:24:27.435Z,101063.63
2023-03-15T02:25:07.112Z,101060.41
2023-03-15T02:25:56.600Z,101067.91
2023-03-15T02:26:50.133Z,101062.38
2023-03-15T02:27:31.123Z,101069.63
2023-03-15T02:28:04.642Z,101067.97
2023-03-15T02:28:36.635Z,101067.97
2023-03-15T02:29:08.850Z,101072.25
2023-03-15T02:29:42.133Z,101073.91
2023-03-15T02:30:14.047Z,101073.22
2023-03-15T02:30:47.597Z,101066.84
2023-03-15T02:31:20.001Z,101068.59
2023-03-15T02:31:52.739Z,101068.22
2023-03-15T02:32:24.579Z,101071.56
2023-03-15T02:32:57.725Z,101074.28
2023-03-15T02:33:33.801Z,101074.81
2023-03-15T02:34:07.379Z,101080.66
2023-03-15T02:34:38.928Z,101080.66
2023-03-15T02:35:10.737Z,101077.81
2023-03-15T02:35:42.326Z,101073.44
2023-03-15T02:36:25.801Z,101076.81
2023-03-15T02:36:57.501Z,101079.59
2023-03-15T02:37:32.042Z,101081.41
2023-03-15T02:38:03.650Z,101078.31
2023-03-15T02:38:35.265Z,101075.97
2023-03-15T02:39:14.929Z,101079.59
2023-03-15T02:39:46.467Z,101076.31
2023-03-15T02:40:22.904Z,101079.38
2023-03-15T02:40:54.523Z,101085.28
2023-03-15T02:41:32.895Z,101078.47
2023-03-15T02:42:05.791Z,101088.66
2023-03-15T02:42:37.578Z,101092.25
2023-03-15T02:43:16.348Z,101088.66
2023-03-15T02:43:50.222Z,101084.25
2023-03-15T02:44:25.672Z,101090.34
2023-03-15T02:44:57.748Z,101092.56
2023-03-15T02:45:30.440Z,101088.88
2023-03-15T02:46:02.556Z,101091.81
2023-03-15T02:46:35.732Z,101092.78
2023-03-15T02:47:10.472Z,101095.78
2023-03-15T02:47:42.117Z,101092.09
2023-03-15T02:48:13.873Z,101092.47
2023-03-15T02:48:46.974Z,101098.09
2023-03-15T02:49:19.025Z,101095.78
2023-03-15T02:49:51.934Z,101091.22
2023-03-15T02:50:23.476Z,101101.63
2023-03-15T02:50:55.874Z,101094.81
2023-03-15T02:51:28.829Z,101102.53
2023-03-15T02:52:01.853Z,101102.44
2023-03-15T02:52:33.732Z,101106.34
2023-03-15T02:53:07.102Z,101099.59
2023-03-15T02:53:38.643Z,101101.78
2023-03-15T02:54:10.204Z,101101.41
2023-03-15T02:54:43.599Z,101105.44
2023-03-15T02:55:15.427Z,101108.66
2023-03-15T02:55:47.161Z,101099.00
2023-03-15T02:56:18.908Z,101101.63
2023-03-15T02:56:51.548Z,101109.28
2023-03-15T02:57:23.393Z,101111.06
2023-03-15T02:57:55.714Z,101101.03
2023-03-15T02:58:27.351Z,101112.03
2023-03-15T02:58:59.396Z,101109.28
2023-03-15T02:59:31.228Z,101117.78
2023-03-15T03:00:14.323Z,101110.06
2023-03-15T03:00:46.008Z,101105.69
2023-03-15T03:01:18.448Z,101110.94
2023-03-15T03:01:50.132Z,101111.44
2023-03-15T03:02:23.857Z,101115.34
2023-03-15T03:02:55.762Z,101114.47
2023-03-15T03:03:27.291Z,101117.53
2023-03-15T03:03:58.973Z,101118.34
2023-03-15T03:04:30.731Z,101114.53
2023-03-15T03:05:02.597Z,101123.66
2023-03-15T03:05:34.995Z,101120.06
2023-03-15T03:06:06.971Z,101128.06
2023-03-15T03:06:39.991Z,101122.97
2023-03-15T03:07:11.601Z,101130.56
2023-03-15T03:07:56.499Z,101125.97
2023-03-15T03:08:28.047Z,101127.09
2023-03-15T03:08:59.637Z,101129.88
2023-03-15T03:09:31.310Z,101124.47
2023-03-15T03:10:05.315Z,101130.03
2023-03-15T03:10:45.454Z,101130.03
2023-03-15T03:11:17.807Z,101131.69
2023-03-15T03:11:49.610Z,101131.53
2023-03-15T03:12:21.226Z,101135.22
2023-03-15T03:12:53.722Z,101133.84
2023-03-15T03:13:31.564Z,101134.22
2023-03-15T03:14:04.191Z,101145.16
2023-03-15T03:14:35.816Z,101135.81
2023-03-15T03:15:08.803Z,101141.03
2023-03-15T03:15:40.968Z,101139.41
2023-03-15T03:16:13.484Z,101150.72
2023-03-15T03:16:45.250Z,101149.50
2023-03-15T03:17:17.429Z,101146.66
2023-03-15T03:17:49.372Z,101146.13
2023-03-15T03:18:21.742Z,101148.00
2023-03-15T03:18:53.352Z,101160.00
2023-03-15T03:19:25.887Z,101149.66
2023-03-15T03:19:58.020Z,101158.19
2023-03-15T03:20:36.988Z,101160.66
2023-03-15T03:21:09.006Z,101155.72
2023-03-15T03:21:43.343Z,101155.97
2023-03-15T03:22:16.217Z,101152.41
2023-03-15T03:22:47.995Z,101159.31
2023-03-15T03:23:21.852Z,101157.53
2023-03-15T03:23:54.732Z,101153.19
2023-03-15T03:24:26.980Z,101160.91
2023-03-15T03:24:59.636Z,101156.88
2023-03-15T03:25:31.588Z,101162.25
2023-03-15T03:26:04.125Z,101162.78
2023-03-15T03:26:37.725Z,101160.53
2023-03-15T03:27:09.514Z,101161.06
2023-03-15T03:27:44.017Z,101165.72
2023-03-15T03:28:17.074Z,101164.50
2023-03-15T03:28:49.653Z,101165.31
2023-03-15T03:29:21.222Z,101160.38
2023-03-15T03:29:53.908Z,101169.50
2023-03-15T03:30:25.767Z,101169.06
2023-03-15T03:30:58.655Z,101168.41
2023-03-15T03:31:33.813Z,101178.06
2023-03-15T03:32:06.520Z,101169.75
2023-03-15T03:32:38.257Z,101179.41
2023-03-15T03:33:09.857Z,101174.16
2023-03-15T03:33:41.406Z,101164.94
2023-03-15T03:34:15.564Z,101166.59
2023-03-15T03:34:48.495Z,101176.69
2023-03-15T03:35:22.050Z,101177.69
2023-03-15T03:35:54.462Z,101187.47
2023-03-15T03:36:26.541Z,101186.94
2023-03-15T03:36:58.080Z,101183.59
2023-03-15T03:37:45.669Z,101184.94
2023-03-15T03:38:21.793Z,101187.19
2023-03-15T03:38:59.378Z,101186.66
2023-03-15T03:39:31.327Z,101183.34
2023-03-15T03:40:08.139Z,101190.41
2023-03-15T03:40:41.130Z,101197.38
2023-03-15T03:41:14.607Z,101195.75
2023-03-15T03:41:46.472Z,101195.75
2023-03-15T03:42:18.351Z,101204.56
2023-03-15T03:42:49.989Z,101207.44
2023-03-15T03:43:24.028Z,101207.53
2023-03-15T03:43:56.043Z,101212.44
2023-03-15T03:44:28.630Z,101214.78
2023-03-15T03:45:00.360Z,101213.41
2023-03-15T03:45:37.253Z,101207.28
2023-03-15T03:46:10.009Z,101215.31
2023-03-15T03:46:46.247Z,101210.13
2023-03-15T03:47:18.700Z,101211.09
2023-03-15T03:47:51.707Z,101215.34
2023-03-15T03:48:23.370Z,101210.41
2023-03-15T03:48:55.371Z,101211.25
2023-03-15T03:49:27.264Z,101209.88
2023-03-15T03:49:58.816Z,101211.78
2023-03-15T03:50:31.872Z,101212.91
2023-03-15T03:51:03.700Z,101220.06
2023-03-15T03:51:36.309Z,101211.25
2023-03-15T03:52:08.012Z,101215.94
2023-03-15T03:52:40.018Z,101211.81
2023-03-15T03:53:16.349Z,101214.06
2023-03-15T03:53:48.010Z,101214.44
2023-03-15T03:54:21.409Z,101216.94
2023-03-15T03:54:52.977Z,101213.47
2023-03-15T03:55:26.085Z,101219.16
2023-03-15T03:55:58.679Z,101224.66
2023-03-15T03:56:31.235Z,101222.03
2023-03-15T03:57:03.022Z,101219.69
2023-03-15T03:57:38.118Z,101226.72
2023-03-15T03:58:12.116Z,101217.84
2023-03-15T03:58:52.386Z,101225.59
2023-03-15T03:59:29.880Z,101223.50
2023-03-15T04:00:11.770Z,101227.56
2023-03-15T04:00:46.745Z,101227.84
2023-03-15T04:01:19.348Z,101221.53
2023-03-15T04:01:55.260Z,101227.31
2023-03-15T04:02:28.238Z,101231.44
2023-03-15T04:03:06.417Z,101226.38
2023-03-15T04:03:40.197Z,101231.19
2023-03-15T04:04:16.860Z,101227.44
2023-03-15T04:04:50.378Z,101227.06
2023-03-15T04:05:25.324Z,101228.03
2023-03-15T04:05:58.367Z,101238.38
2023-03-15T04:06:31.387Z,101233.56
2023-03-15T04:07:03.014Z,101239.50
2023-03-15T04:07:40.060Z,101244.47
2023-03-15T04:08:12.142Z,101241.69
2023-03-15T04:08:44.423Z,101247.75
2023-03-15T04:09:21.870Z,101244.72
2023-03-15T04:09:53.678Z,101253.28
2023-03-15T04:10:26.933Z,101247.94
2023-03-15T04:10:58.630Z,101252.03
2023-03-15T04:11:36.236Z,101261.25
2023-03-15T04:12:11.117Z,101254.50
2023-03-15T04:12:45.528Z,101254.50
2023-03-15T04:13:19.794Z,101254.38
2023-03-15T04:13:51.366Z,101258.78
2023-03-15T04:14:22.942Z,101262.63
2023-03-15T04:14:55.092Z,101261.66
2023-03-15T04:15:29.223Z,101254.66
2023-03-15T04:16:02.692Z,101266.22
2023-03-15T04:16:38.872Z,101259.63
2023-03-15T04:17:12.919Z,101255.47
2023-03-15T04:17:46.164Z,101256.56
2023-03-15T04:18:18.526Z,101259.31
2023-03-15T04:18:51.545Z,101268.44
2023-03-15T04:19:23.267Z,101267.75
2023-03-15T04:19:55.959Z,101264.03
2023-03-15T04:20:34.552Z,101264.56
2023-03-15T04:21:10.737Z,101259.75
2023-03-15T04:21:47.532Z,101266.66
2023-03-15T04:22:50.020Z,101265.13
2023-03-15T04:23:44.416Z,101262.91
2023-03-15T04:24:24.491Z,101277.97
2023-03-15T04:25:18.921Z,101266.50
2023-03-15T04:25:58.556Z,101267.06
2023-03-15T04:26:48.763Z,101270.63
2023-03-15T04:27:42.217Z,101270.78
2023-03-15T04:28:38.117Z,101269.53
2023-03-15T04:29:32.429Z,101271.75
2023-03-15T04:30:27.006Z,101271.75
2023-03-15T04:31:14.847Z,101268.59
2023-03-15T04:32:07.219Z,101264.03
2023-03-15T04:32:58.962Z,101271.75
2023-03-15T04:33:56.846Z,101265.25
2023-03-15T04:34:44.032Z,101274.38
2023-03-15T04:35:31.441Z,101279.22
2023-03-15T04:36:09.495Z,101280.56
2023-03-15T04:36:59.765Z,101276.59
2023-03-15T04:37:38.526Z,101280.75
2023-03-15T04:38:35.572Z,101285.00
2023-03-15T04:39:27.621Z,101284.16
2023-03-15T04:40:11.694Z,101278.13
2023-03-15T04:41:10.864Z,101278.13
2023-03-15T04:41:52.284Z,101283.22
2023-03-15T04:42:47.937Z,101281.41
2023-03-15T04:43:44.348Z,101285.56
2023-03-15T04:44:27.845Z,101291.63
2023-03-15T04:45:05.551Z,101285.84
2023-03-15T04:45:40.137Z,101290.53
2023-03-15T04:46:40.892Z,101294.13
2023-03-15T04:47:18.350Z,101298.78
2023-03-15T04:48:02.169Z,101297.00
2023-03-15T04:48:45.612Z,101295.75
2023-03-15T04:49:46.259Z,101298.25
2023-03-15T04:50:35.802Z,101294.41
2023-03-15T04:51:23.068Z,101292.47
2023-03-15T04:52:04.418Z,101299.63
2023-03-15T04:52:58.124Z,101296.84
2023-03-15T04:53:50.432Z,101301.69
2023-03-15T04:54:41.698Z,101301.28
2023-03-15T04:55:31.520Z,101306.53
2023-03-15T04:56:42.183Z,101304.88
2023-03-15T04:57:22.730Z,101309.16
2023-03-15T04:58:00.164Z,101301.53
2023-03-15T04:58:34.433Z,101307.22
2023-03-15T04:59:22.893Z,101310.63
2023-03-15T05:00:21.898Z,101307.50
2023-03-15T05:01:11.809Z,101297.72
2023-03-15T05:02:00.220Z,101309.56
2023-03-15T05:02:55.107Z,101310.63
2023-03-15T05:03:50.411Z,101312.03
2023-03-15T05:04:51.700Z,101306.91
2023-03-15T05:05:41.562Z,101310.50
2023-03-15T05:06:22.299Z,101314.78
2023-03-15T05:07:12.147Z,101309.00
2023-03-15T05:08:01.809Z,101311.19
2023-03-15T05:08:39.597Z,101308.16
2023-03-15T05:09:30.202Z,101311.19
2023-03-15T05:10:33.857Z,101309.81
2023-03-15T05:11:28.496Z,101316.16
2023-03-15T05:12:18.188Z,101312.03
2023-03-15T05:13:05.179Z,101308.31
2023-03-15T05:13:55.370Z,101311.63
2023-03-15T05:14:41.417Z,101308.72
2023-03-15T05:15:33.064Z,101310.88
2023-03-15T05:16:31.942Z,101310.63
2023-03-15T05:17:17.099Z,101323.91
2023-03-15T05:17:57.648Z,101322.94
2023-03-15T05:18:47.842Z,101322.69
2023-03-15T05:19:46.114Z,101322.75
2023-03-15T05:20:34.256Z,101326.31
2023-03-15T05:21:19.014Z,101333.22
2023-03-15T05:22:05.592Z,101338.16
2023-03-15T05:23:08.721Z,101341.19
2023-03-15T05:23:48.810Z,101335.69
2023-03-15T05:24:43.796Z,101336.09
2023-03-15T05:25:34.003Z,101350.16
2023-03-15T05:26:25.499Z,101345.88
2023-03-15T05:27:14.062Z,101348.91
2023-03-15T05:27:59.228Z,101341.75
2023-03-15T05:28:59.976Z,101348.66
2023-03-15T05:29:51.435Z,101347.97
2023-03-15T05:30:44.045Z,101349.34
2023-03-15T05:31:52.313Z,101354.31
2023-03-15T05:32:39.586Z,101358.31
2023-03-15T05:33:24.773Z,101351.69
2023-03-15T05:34:12.227Z,101359.00
2023-03-15T05:35:03.256Z,101352.56
2023-03-15T05:35:47.014Z,101359.72
2023-03-15T05:36:44.494Z,101355.88
2023-03-15T05:37:18.703Z,101357.66
2023-03-15T05:38:08.532Z,101358.34
2023-03-15T05:38:58.816Z,101362.34
2023-03-15T05:39:50.624Z,101366.91
2023-03-15T05:40:38.461Z,101361.38
2023-03-15T05:41:33.858Z,101365.53
2023-03-15T05:42:26.319Z,101368.31
2023-03-15T05:43:21.817Z,101363.75
2023-03-15T05:44:10.248Z,101369.25
2023-03-15T05:45:00.284Z,101371.44
2023-03-15T05:45:51.108Z,101376.13
2023-03-15T05:46:41.754Z,101373.00
2023-03-15T05:47:13.289Z,101376.59
2023-03-15T05:47:59.273Z,101382.50
2023-03-15T05:48:45.517Z,101381.53
2023-03-15T05:49:34.585Z,101372.41
2023-03-15T05:50:32.890Z,101379.75
2023-03-15T05:51:36.778Z,101382.06
2023-03-15T05:52:43.396Z,101387.34
2023-03-15T05:53:23.617Z,101389.13
2023-03-15T05:54:30.347Z,101384.28
2023-03-15T05:55:22.139Z,101387.56
2023-03-15T05:56:11.222Z,101391.44
2023-03-15T05:56:45.329Z,101391.44
2023-03-15T05:57:49.123Z,101387.31
2023-03-15T05:58:33.306Z,101391.84
2023-03-15T05:59:28.105Z,101395.44
2023-03-15T06:00:32.405Z,101397.78
2023-03-15T06:01:10.778Z,101402.50
2023-03-15T06:02:01.608Z,101399.72
2023-03-15T06:02:42.454Z,101406.09
2023-03-15T06:03:37.836Z,101405.69
2023-03-15T06:04:18.481Z,101407.19
2023-03-15T06:04:50.616Z,101413.69
2023-03-15T06:05:27.002Z,101415.16
2023-03-15T06:06:01.205Z,101413.09
2023-03-15T06:06:40.218Z,101414.38
2023-03-15T06:07:13.990Z,101414.63
2023-03-15T06:07:46.317Z,101412.41
2023-03-15T06:08:19.362Z,101419.19
2023-03-15T06:08:53.178Z,101414.59
2023-03-15T06:09:24.880Z,101414.31
2023-03-15T06:09:56.556Z,101410.47
2023-03-15T06:10:28.277Z,101414.59
2023-03-15T06:11:01.749Z,101415.97
2023-03-15T06:11:34.956Z,101415.97
2023-03-15T06:12:07.033Z,101420.25
2023-03-15T06:12:38.631Z,101421.78
2023-03-15T06:13:10.278Z,101421.50
2023-03-15T06:13:42.370Z,101423.28
2023-03-15T06:14:21.301Z,101427.88
2023-03-15T06:14:56.191Z,101430.63
2023-03-15T06:15:27.794Z,101427.75
2023-03-15T06:16:00.404Z,101431.47
2023-03-15T06:16:43.127Z,101432.56
2023-03-15T06:17:14.676Z,101429.00
2023-03-15T06:17:51.978Z,101435.31
2023-03-15T06:18:23.997Z,101430.09
2023-03-15T06:18:55.985Z,101428.03
2023-03-15T06:19:27.542Z,101429.25
2023-03-15T06:19:59.914Z,101432.56
2023-03-15T06:20:32.014Z,101422.22
2023-03-15T06:21:09.074Z,101423.19
2023-03-15T06:21:40.763Z,101429.56
2023-03-15T06:22:26.919Z,101431.78
2023-03-15T06:23:02.839Z,101435.34
2023-03-15T06:23:41.903Z,101428.59
2023-03-15T06:24:15.040Z,101434.81
2023-03-15T06:24:46.791Z,101429.41
2023-03-15T06:25:18.747Z,101430.41
2023-03-15T06:25:50.425Z,101435.09
2023-03-15T06:26:23.051Z,101430.81
2023-03-15T06:26:58.912Z,101434.81
2023-03-15T06:27:30.579Z,101433.41
2023-03-15T06:28:03.465Z,101428.72
2023-03-15T06:28:35.289Z,101437.16
2023-03-15T06:29:07.031Z,101431.19
2023-03-15T06:29:38.846Z,101427.22
2023-03-15T06:30:11.056Z,101435.91
2023-03-15T06:30:43.079Z,101433.69
2023-03-15T06:31:15.765Z,101437.97
2023-03-15T06:31:59.273Z,101429.13
2023-03-15T06:32:32.263Z,101428.56
2023-03-15T06:33:04.300Z,101435.06
2023-03-15T06:33:35.969Z,101439.44
2023-03-15T06:34:07.699Z,101432.97
2023-03-15T06:34:39.989Z,101438.31
2023-03-15T06:35:11.712Z,101440.00
2023-03-15T06:35:43.385Z,101441.34
2023-03-15T06:36:15.407Z,101448.28
2023-03-15T06:36:47.853Z,101442.75
2023-03-15T06:37:28.994Z,101441.66
2023-03-15T06:38:06.703Z,101445.66
2023-03-15T06:38:38.214Z,101439.72
2023-03-15T06:39:12.451Z,101444.97
2023-03-15T06:39:44.639Z,101444.41
2023-03-15T06:40:16.379Z,101444.16
2023-03-15T06:40:49.155Z,101444.97
2023-03-15T06:41:21.469Z,101442.75
2023-03-15T06:41:58.500Z,101442.75
2023-03-15T06:42:32.033Z,101443.44
2023-03-15T06:43:06.111Z,101438.56
2023-03-15T06:43:38.707Z,101441.88
2023-03-15T06:44:10.847Z,101441.19
2023-03-15T06:44:43.826Z,101441.50
2023-03-15T06:45:16.467Z,101443.69
2023-03-15T06:45:49.504Z,101442.00
2023-03-15T06:46:21.517Z,101446.84
2023-03-15T06:46:53.105Z,101438.97
2023-03-15T06:47:24.665Z,101442.41
2023-03-15T06:47:56.414Z,101440.19
2023-03-15T06:48:28.790Z,101440.75
2023-03-15T06:49:01.712Z,101441.84
2023-03-15T06:49:33.564Z,101440.81
2023-03-15T06:50:06.372Z,101437.25
2023-03-15T06:50:46.820Z,101445.25
2023-03-15T06:51:19.840Z,101443.00
2023-03-15T06:52:02.336Z,101448.16
2023-03-15T06:52:34.017Z,101445.09
2023-03-15T06:53:06.076Z,101449.50
2023-03-15T06:53:38.320Z,101450.50
2023-03-15T06:54:09.897Z,101456.19
2023-03-15T06:54:41.488Z,101460.84
2023-03-15T06:55:18.038Z,101458.50
2023-03-15T06:55:50.784Z,101460.41
2023-03-15T06:56:22.816Z,101463.47
2023-03-15T06:56:54.632Z,101467.22
2023-03-15T06:57:26.199Z,101467.59
2023-03-15T06:57:57.984Z,101470.59
2023-03-15T06:58:29.516Z,101466.91
2023-03-15T06:59:01.039Z,101468.59
2023-03-15T06:59:32.739Z,101469.09
2023-03-15T07:00:11.194Z,101463.84
2023-03-15T07:00:44.258Z,101467.31